createdAt,value
2024-03-08T00:00:24.518Z,54.08
2024-03-08T00:01:31.376Z,41.66
2024-03-08T00:02:38.538Z,28.43
2024-03-08T00:03:45.512Z,19.49
2024-03-08T00:04:52.424Z,13.42
2024-03-08T00:05:59.397Z,10.65
2024-03-08T00:07:06.248Z,8.97
2024-03-08T00:08:13.114Z,8.48
2024-03-08T00:09:19.988Z,7.12
2024-03-08T00:10:28.371Z,6.75
2024-03-08T00:11:35.535Z,6.56
2024-03-08T00:12:42.443Z,8.26
2024-03-08T00:13:49.308Z,7.37
2024-03-08T00:14:56.217Z,7.90
2024-03-08T00:16:03.159Z,8.76
2024-03-08T00:17:10.079Z,12.54
2024-03-08T00:18:17.059Z,20.45
2024-03-08T00:19:23.936Z,22.62
2024-03-08T00:20:30.903Z,32.56
2024-03-08T00:21:37.802Z,61.03
2024-03-08T00:22:44.674Z,78.33
2024-03-08T00:23:51.589Z,58.20
2024-03-08T00:24:58.450Z,31.93
2024-03-08T00:26:05.366Z,20.43
2024-03-08T00:27:12.268Z,14.40
2024-03-08T00:28:19.128Z,11.80
2024-03-08T00:29:26.073Z,12.03
2024-03-08T00:30:32.915Z,13.53
2024-03-08T00:31:39.848Z,14.96
2024-03-08T00:32:46.776Z,16.89
2024-03-08T00:33:53.905Z,10.03
2024-03-08T00:35:00.854Z,7.87
2024-03-08T00:36:07.760Z,8.02
2024-03-08T00:37:14.626Z,6.60
2024-03-08T00:38:21.523Z,6.34
2024-03-08T00:39:28.376Z,6.87
2024-03-08T00:40:35.253Z,6.46
2024-03-08T00:41:42.155Z,5.21
2024-03-08T00:42:49.019Z,5.10
2024-03-08T00:43:55.956Z,5.99
2024-03-08T00:45:02.991Z,5.92
2024-03-08T00:46:10.005Z,4.28
2024-03-08T00:47:16.902Z,5.37
2024-03-08T00:48:23.837Z,6.24
2024-03-08T00:49:30.734Z,6.30
2024-03-08T00:50:37.657Z,7.41
2024-03-08T00:51:44.557Z,8.49
2024-03-08T00:52:51.434Z,9.77
2024-03-08T00:53:58.364Z,9.44
2024-03-08T00:55:05.269Z,6.22
2024-03-08T00:56:12.129Z,6.07
2024-03-08T00:57:19.011Z,9.69
2024-03-08T00:58:25.857Z,17.07
2024-03-08T00:59:32.757Z,33.78
2024-03-08T01:00:39.794Z,57.24
2024-03-08T01:01:46.772Z,78.77
2024-03-08T01:02:53.709Z,91.46
2024-03-08T01:04:00.630Z,99.47
2024-03-08T01:05:07.482Z,98.83
2024-03-08T01:06:14.437Z,92.64
2024-03-08T01:07:21.301Z,104.42
2024-03-08T01:08:28.264Z,91.91
2024-03-08T01:09:35.116Z,86.77
2024-03-08T01:10:42.034Z,81.29
2024-03-08T01:11:48.946Z,60.59
2024-03-08T01:12:55.867Z,50.56
2024-03-08T01:14:02.757Z,42.48
2024-03-08T01:15:09.893Z,31.07
2024-03-08T01:16:17.112Z,23.92
2024-03-08T01:17:24.119Z,16.34
2024-03-08T01:18:31.133Z,12.80
2024-03-08T01:19:38.136Z,10.69
2024-03-08T01:20:45.130Z,9.86
2024-03-08T01:21:52.067Z,10.56
2024-03-08T01:22:59.009Z,10.91
2024-03-08T01:24:06.019Z,11.17
2024-03-08T01:25:12.941Z,10.19
2024-03-08T01:26:19.785Z,11.00
2024-03-08T01:27:26.676Z,10.76
2024-03-08T01:28:33.517Z,10.55
2024-03-08T01:29:40.393Z,10.12
2024-03-08T01:30:47.265Z,9.70
2024-03-08T01:31:54.150Z,9.94
2024-03-08T01:33:01.064Z,8.91
2024-03-08T01:34:07.999Z,8.59
2024-03-08T01:35:14.846Z,9.82
2024-03-08T01:36:21.702Z,13.07
2024-03-08T01:37:28.623Z,10.98
2024-03-08T01:38:35.489Z,10.27
2024-03-08T01:39:42.458Z,12.66
2024-03-08T01:40:49.295Z,16.04
2024-03-08T01:41:56.239Z,15.55
2024-03-08T01:43:03.168Z,17.10
2024-03-08T01:44:10.012Z,19.12
2024-03-08T01:45:16.959Z,17.28
2024-03-08T01:46:23.866Z,15.47
2024-03-08T01:47:30.883Z,15.74
2024-03-08T01:48:37.972Z,12.87
2024-03-08T01:49:44.941Z,16.25
2024-03-08T01:50:51.845Z,11.00
2024-03-08T01:51:58.700Z,10.70
2024-03-08T01:53:05.583Z,13.85
2024-03-08T01:54:12.590Z,18.70
2024-03-08T01:55:19.451Z,30.34
2024-03-08T01:56:26.646Z,44.13
2024-03-08T01:57:33.623Z,56.10
2024-03-08T01:58:40.469Z,68.15
2024-03-08T01:59:47.356Z,67.96
2024-03-08T02:00:54.202Z,78.95
2024-03-08T02:02:01.097Z,87.09
2024-03-08T02:03:08.040Z,85.71
2024-03-08T02:04:14.941Z,91.79
2024-03-08T02:05:21.810Z,96.63
2024-03-08T02:06:28.710Z,89.61
2024-03-08T02:07:35.579Z,77.89
2024-03-08T02:08:42.499Z,81.33
2024-03-08T02:09:49.447Z,87.01
2024-03-08T02:10:56.314Z,67.44
2024-03-08T02:12:03.190Z,66.90
2024-03-08T02:13:10.103Z,72.92
2024-03-08T02:14:16.960Z,82.49
2024-03-08T02:15:23.804Z,86.76
2024-03-08T02:16:30.669Z,64.59
2024-03-08T02:17:37.649Z,53.70
2024-03-08T02:18:44.708Z,40.55
2024-03-08T02:19:51.664Z,35.19
2024-03-08T02:20:58.550Z,25.73
2024-03-08T02:22:05.823Z,25.03
2024-03-08T02:23:12.897Z,21.85
2024-03-08T02:24:19.807Z,19.41
2024-03-08T02:25:26.669Z,17.57
2024-03-08T02:26:33.567Z,14.93
2024-03-08T02:27:40.420Z,12.14
2024-03-08T02:28:47.270Z,12.58
2024-03-08T02:29:54.154Z,15.50
2024-03-08T02:31:01.104Z,12.97
2024-03-08T02:32:08.014Z,14.81
2024-03-08T02:33:14.891Z,16.73
2024-03-08T02:34:22.088Z,15.38
2024-03-08T02:35:28.988Z,15.12
2024-03-08T02:36:35.851Z,14.56
2024-03-08T02:37:42.703Z,14.36
2024-03-08T02:38:49.652Z,15.14
2024-03-08T02:39:56.637Z,16.79
2024-03-08T02:41:03.544Z,17.54
2024-03-08T02:42:10.508Z,20.94
2024-03-08T02:43:17.463Z,25.09
2024-03-08T02:44:24.324Z,34.72
2024-03-08T02:45:31.176Z,39.45
2024-03-08T02:46:38.066Z,43.92
2024-03-08T02:47:45.003Z,49.48
2024-03-08T02:48:51.931Z,52.11
2024-03-08T02:49:58.874Z,60.38
2024-03-08T02:51:05.752Z,62.82
2024-03-08T02:52:12.654Z,60.34
2024-03-08T02:53:19.488Z,59.34
2024-03-08T02:54:26.372Z,48.54
2024-03-08T02:55:33.247Z,38.42
2024-03-08T02:56:40.154Z,30.34
2024-03-08T02:57:47.013Z,21.57
2024-03-08T02:58:53.964Z,15.79
2024-03-08T03:00:00.958Z,13.55
2024-03-08T03:01:07.965Z,8.55
2024-03-08T03:02:14.830Z,8.26
2024-03-08T03:03:21.750Z,8.15
2024-03-08T03:04:28.610Z,6.04
2024-03-08T03:05:35.567Z,6.79
2024-03-08T03:06:42.461Z,8.20
2024-03-08T03:07:49.302Z,8.80
2024-03-08T03:08:56.293Z,11.88
2024-03-08T03:10:03.119Z,15.40
2024-03-08T03:11:10.028Z,33.96
2024-03-08T03:12:16.920Z,54.62
2024-03-08T03:13:23.802Z,77.43
2024-03-08T03:14:30.728Z,86.98
2024-03-08T03:15:37.713Z,88.93
2024-03-08T03:16:44.761Z,90.26
2024-03-08T03:17:51.696Z,92.69
2024-03-08T03:18:58.522Z,99.46
2024-03-08T03:20:05.426Z,87.40
2024-03-08T03:21:12.405Z,73.13
2024-03-08T03:22:19.332Z,64.33
2024-03-08T03:23:26.180Z,47.78
2024-03-08T03:24:33.069Z,36.93
2024-03-08T03:25:40.305Z,28.44
2024-03-08T03:26:47.326Z,24.76
2024-03-08T03:27:54.241Z,20.48
2024-03-08T03:29:01.083Z,14.65
2024-03-08T03:30:08.002Z,12.34
2024-03-08T03:31:14.935Z,10.87
2024-03-08T03:32:21.864Z,11.24
2024-03-08T03:33:28.804Z,8.61
2024-03-08T03:34:35.632Z,9.87
2024-03-08T03:35:42.585Z,8.11
2024-03-08T03:36:49.561Z,9.84
2024-03-08T03:37:56.408Z,9.76
2024-03-08T03:39:03.286Z,9.42
2024-03-08T03:40:10.166Z,9.57
2024-03-08T03:41:17.023Z,9.43
2024-03-08T03:42:23.939Z,10.61
2024-03-08T03:43:30.811Z,8.89
2024-03-08T03:44:37.741Z,7.80
2024-03-08T03:45:44.618Z,8.40
2024-03-08T03:46:51.471Z,7.78
2024-03-08T03:47:58.395Z,7.95
2024-03-08T03:49:05.283Z,9.65
2024-03-08T03:50:12.122Z,8.68
2024-03-08T03:51:19.016Z,8.23
2024-03-08T03:52:25.867Z,9.02
2024-03-08T03:53:32.797Z,9.66
2024-03-08T03:54:39.670Z,10.64
2024-03-08T03:55:46.516Z,14.45
2024-03-08T03:56:53.429Z,17.97
2024-03-08T03:58:00.715Z,19.15
2024-03-08T03:59:07.741Z,17.06
2024-03-08T04:00:14.633Z,15.69
2024-03-08T04:01:21.576Z,16.03
2024-03-08T04:02:28.444Z,15.69
2024-03-08T04:03:35.270Z,11.81
2024-03-08T04:04:42.188Z,12.52
2024-03-08T04:05:49.134Z,15.98
2024-03-08T04:06:56.039Z,15.95
2024-03-08T04:08:02.950Z,21.34
2024-03-08T04:09:09.893Z,24.88
2024-03-08T04:10:16.846Z,31.94
2024-03-08T04:11:23.689Z,38.46
2024-03-08T04:12:30.581Z,49.29
2024-03-08T04:13:37.491Z,60.65
2024-03-08T04:14:44.391Z,75.75
2024-03-08T04:15:51.269Z,84.17
2024-03-08T04:16:58.150Z,90.23
2024-03-08T04:18:05.098Z,97.53
2024-03-08T04:19:12.025Z,98.79
2024-03-08T04:20:19.091Z,101.11
2024-03-08T04:21:26.024Z,96.16
2024-03-08T04:22:32.836Z,96.77
2024-03-08T04:23:39.715Z,95.60
2024-03-08T04:24:46.576Z,92.76
2024-03-08T04:25:53.462Z,100.99
2024-03-08T04:27:00.553Z,101.30
2024-03-08T04:28:07.493Z,103.58
2024-03-08T04:29:14.339Z,92.96
2024-03-08T04:30:21.250Z,69.92
2024-03-08T04:31:28.065Z,49.23
2024-03-08T04:32:35.032Z,35.89
2024-03-08T04:33:42.028Z,22.17
2024-03-08T04:34:48.879Z,14.53
2024-03-08T04:35:55.836Z,10.03
2024-03-08T04:37:02.698Z,10.08
2024-03-08T04:38:09.592Z,9.72
2024-03-08T04:39:16.542Z,11.96
2024-03-08T04:40:23.499Z,12.27
2024-03-08T04:41:30.397Z,17.91
2024-03-08T04:42:37.226Z,22.65
2024-03-08T04:43:44.129Z,22.15
2024-03-08T04:44:51.023Z,24.92
2024-03-08T04:45:57.878Z,22.11
2024-03-08T04:47:04.742Z,21.95
2024-03-08T04:48:11.729Z,35.02
2024-03-08T04:49:18.718Z,131.95
2024-03-08T04:50:25.955Z,23.58
2024-03-08T04:51:32.838Z,28.61
2024-03-08T04:52:39.734Z,25.68
2024-03-08T04:53:46.587Z,21.85
2024-03-08T04:54:53.478Z,40.92
2024-03-08T04:56:00.374Z,29.02
2024-03-08T04:57:09.419Z,29.48
2024-03-08T04:58:16.835Z,25.07
2024-03-08T04:59:23.738Z,34.53
2024-03-08T05:00:30.685Z,38.73
2024-03-08T05:01:37.598Z,86.08
2024-03-08T05:02:44.523Z,93.99
2024-03-08T05:03:51.398Z,103.66
2024-03-08T05:04:58.296Z,108.22
2024-03-08T05:06:05.155Z,99.05
2024-03-08T05:07:12.079Z,87.11
2024-03-08T05:08:18.947Z,66.55
2024-03-08T05:09:25.842Z,59.48
2024-03-08T05:10:32.722Z,58.20
2024-03-08T05:11:39.596Z,51.92
2024-03-08T05:12:46.406Z,49.54
2024-03-08T05:13:53.275Z,43.06
2024-03-08T05:15:00.221Z,39.60
2024-03-08T05:16:07.105Z,41.14
2024-03-08T05:17:13.963Z,34.63
2024-03-08T05:18:20.907Z,39.12
2024-03-08T05:19:29.212Z,37.42
2024-03-08T05:20:37.243Z,34.16
2024-03-08T05:21:44.100Z,34.75
2024-03-08T05:22:50.983Z,32.80
2024-03-08T05:23:57.884Z,39.43
2024-03-08T05:25:04.760Z,37.98
2024-03-08T05:26:11.646Z,34.32
2024-03-08T05:27:18.639Z,34.44
2024-03-08T05:28:25.535Z,33.47
2024-03-08T05:29:32.457Z,40.73
2024-03-08T05:30:39.341Z,77.44
2024-03-08T05:31:46.263Z,102.39
2024-03-08T05:32:53.226Z,74.73
2024-03-08T05:34:00.209Z,74.51
2024-03-08T05:35:07.106Z,56.50
2024-03-08T05:36:13.987Z,51.55
2024-03-08T05:37:20.861Z,50.47
2024-03-08T05:38:27.756Z,46.56
2024-03-08T05:39:34.642Z,37.54
2024-03-08T05:40:41.501Z,27.84
2024-03-08T05:41:48.580Z,20.73
2024-03-08T05:42:55.681Z,27.01
2024-03-08T05:44:02.560Z,26.69
2024-03-08T05:45:09.498Z,25.91
2024-03-08T05:46:16.320Z,24.36
2024-03-08T05:47:23.257Z,22.08
2024-03-08T05:48:30.193Z,19.99
2024-03-08T05:49:37.134Z,19.03
2024-03-08T05:50:43.996Z,19.70
2024-03-08T05:51:50.866Z,23.09
2024-03-08T05:52:57.792Z,31.50
2024-03-08T05:54:04.741Z,22.44
2024-03-08T05:55:11.673Z,20.52
2024-03-08T05:56:18.535Z,24.60
2024-03-08T05:57:25.428Z,22.33
2024-03-08T05:58:32.323Z,17.87
2024-03-08T05:59:39.280Z,24.61
2024-03-08T06:00:46.165Z,25.92
2024-03-08T06:01:53.024Z,16.51
2024-03-08T06:02:59.926Z,15.41
2024-03-08T06:04:06.849Z,14.40
2024-03-08T06:05:13.755Z,12.97
2024-03-08T06:06:20.700Z,13.57
2024-03-08T06:07:27.533Z,12.83
2024-03-08T06:08:34.427Z,12.30
2024-03-08T06:09:41.326Z,21.81
2024-03-08T06:10:48.303Z,21.40
2024-03-08T06:11:55.751Z,34.01
2024-03-08T06:13:02.878Z,39.56
2024-03-08T06:14:09.756Z,40.71
2024-03-08T06:15:16.784Z,39.63
2024-03-08T06:16:23.822Z,31.95
2024-03-08T06:17:30.729Z,29.78
2024-03-08T06:18:37.807Z,24.31
2024-03-08T06:19:44.703Z,15.20
2024-03-08T06:20:53.714Z,11.57
2024-03-08T06:22:01.682Z,12.13
2024-03-08T06:23:08.536Z,10.55
2024-03-08T06:24:15.446Z,14.18
2024-03-08T06:25:22.378Z,46.22
2024-03-08T06:26:30.713Z,47.95
2024-03-08T06:27:38.246Z,42.92
2024-03-08T06:28:45.173Z,29.75
2024-03-08T06:29:52.131Z,38.97
2024-03-08T06:30:58.948Z,72.07
2024-03-08T06:32:05.895Z,62.86
2024-03-08T06:33:12.851Z,48.47
2024-03-08T06:34:19.739Z,51.98
2024-03-08T06:35:26.576Z,41.16
2024-03-08T06:36:33.452Z,43.41
2024-03-08T06:37:40.398Z,42.56
2024-03-08T06:38:47.312Z,70.42
2024-03-08T06:39:54.274Z,105.46
2024-03-08T06:41:01.219Z,140.84
2024-03-08T06:42:08.211Z,143.81
2024-03-08T06:43:15.076Z,148.07
2024-03-08T06:44:22.044Z,144.07
2024-03-08T06:45:28.854Z,151.35
2024-03-08T06:46:35.776Z,151.03
2024-03-08T06:47:42.668Z,148.27
2024-03-08T06:48:49.945Z,143.40
2024-03-08T06:49:56.918Z,143.59
2024-03-08T06:51:03.776Z,135.43
2024-03-08T06:52:10.622Z,137.48
2024-03-08T06:53:19.599Z,137.00
2024-03-08T06:54:28.070Z,113.07
2024-03-08T06:55:34.959Z,108.56
2024-03-08T06:56:41.828Z,113.97
2024-03-08T06:57:48.722Z,85.89
2024-03-08T06:58:55.608Z,48.47
2024-03-08T07:00:02.639Z,38.01
2024-03-08T07:01:09.786Z,37.90
2024-03-08T07:02:16.621Z,45.82
2024-03-08T07:03:23.571Z,81.76
2024-03-08T07:04:30.557Z,116.74
2024-03-08T07:05:37.435Z,123.69
2024-03-08T07:06:44.316Z,121.30
2024-03-08T07:07:51.163Z,129.62
2024-03-08T07:08:58.100Z,117.01
2024-03-08T07:10:04.947Z,95.24
2024-03-08T07:11:11.937Z,91.38
2024-03-08T07:12:18.821Z,88.50
2024-03-08T07:13:25.721Z,87.91
2024-03-08T07:14:32.680Z,71.93
2024-03-08T07:15:39.566Z,58.81
2024-03-08T07:16:46.424Z,45.46
2024-03-08T07:17:53.371Z,37.01
2024-03-08T07:19:00.500Z,36.48
2024-03-08T07:20:07.426Z,41.28
2024-03-08T07:21:14.278Z,32.51
2024-03-08T07:22:21.259Z,32.04
2024-03-08T07:23:28.149Z,32.12
2024-03-08T07:24:35.002Z,36.56
2024-03-08T07:25:41.848Z,40.01
2024-03-08T07:26:48.693Z,48.85
2024-03-08T07:27:55.608Z,51.83
2024-03-08T07:29:02.496Z,45.71
2024-03-08T07:30:09.428Z,34.48
2024-03-08T07:31:16.300Z,35.76
2024-03-08T07:32:23.140Z,40.03
2024-03-08T07:33:30.110Z,39.35
2024-03-08T07:34:37.000Z,35.78
2024-03-08T07:35:43.885Z,31.05
2024-03-08T07:36:50.768Z,33.60
2024-03-08T07:37:57.604Z,37.94
2024-03-08T07:39:05.523Z,37.35
2024-03-08T07:40:14.161Z,36.91
2024-03-08T07:41:21.017Z,35.09
2024-03-08T07:42:27.854Z,43.84
2024-03-08T07:43:34.733Z,50.97
2024-03-08T07:44:41.581Z,40.98
2024-03-08T07:45:48.489Z,69.65
2024-03-08T07:46:58.152Z,52.04
2024-03-08T07:48:05.421Z,44.11
2024-03-08T07:49:12.421Z,33.14
2024-03-08T07:50:19.293Z,27.25
2024-03-08T07:51:26.261Z,24.48
2024-03-08T07:52:33.112Z,30.55
2024-03-08T07:53:39.952Z,32.66
2024-03-08T07:54:46.885Z,30.03
2024-03-08T07:55:53.858Z,37.67
2024-03-08T07:57:00.835Z,45.76
2024-03-08T07:58:07.793Z,47.54
2024-03-08T07:59:14.623Z,49.39
2024-03-08T08:00:21.510Z,57.15
2024-03-08T08:01:28.495Z,59.83
2024-03-08T08:02:37.841Z,65.16
2024-03-08T08:03:45.992Z,54.88
2024-03-08T08:04:52.928Z,40.92
2024-03-08T08:05:59.759Z,35.25
2024-03-08T08:07:06.645Z,28.67
2024-03-08T08:08:13.549Z,27.85
2024-03-08T08:09:20.368Z,30.18
2024-03-08T08:10:27.226Z,34.26
2024-03-08T08:11:34.217Z,33.64
2024-03-08T08:12:41.129Z,33.55
2024-03-08T08:13:48.116Z,28.93
2024-03-08T08:14:55.009Z,27.12
2024-03-08T08:16:01.919Z,25.41
2024-03-08T08:17:08.744Z,24.88
2024-03-08T08:18:15.645Z,24.01
2024-03-08T08:19:22.569Z,24.26
2024-03-08T08:20:29.432Z,26.51
2024-03-08T08:21:36.328Z,26.70
2024-03-08T08:22:43.270Z,24.58
2024-03-08T08:23:50.136Z,28.19
2024-03-08T08:24:57.043Z,28.99
2024-03-08T08:26:03.960Z,33.77
2024-03-08T08:27:10.806Z,31.35
2024-03-08T08:28:17.731Z,36.21
2024-03-08T08:29:24.686Z,33.73
2024-03-08T08:30:31.558Z,30.66
2024-03-08T08:31:38.435Z,32.86
2024-03-08T08:32:45.336Z,39.98
2024-03-08T08:33:52.248Z,38.31
2024-03-08T08:34:59.112Z,40.44
2024-03-08T08:36:06.027Z,39.12
2024-03-08T08:37:12.901Z,38.95
2024-03-08T08:38:19.760Z,44.96
2024-03-08T08:39:26.612Z,52.94
2024-03-08T08:40:33.575Z,44.25
2024-03-08T08:41:40.463Z,44.73
2024-03-08T08:42:50.035Z,44.38
2024-03-08T08:44:03.715Z,48.29
2024-03-08T08:45:15.102Z,42.76
2024-03-08T08:46:21.387Z,44.09
2024-03-08T08:47:28.524Z,49.56
2024-03-08T08:48:35.403Z,51.15
2024-03-08T08:49:42.252Z,48.16
2024-03-08T08:50:49.140Z,46.00
2024-03-08T08:51:59.020Z,42.59
2024-03-08T08:53:06.174Z,45.95
2024-03-08T08:54:14.614Z,43.14
2024-03-08T08:55:22.942Z,44.42
2024-03-08T08:56:29.890Z,57.80
2024-03-08T08:57:37.047Z,49.05
2024-03-08T08:58:44.077Z,55.22
2024-03-08T08:59:50.928Z,62.26
2024-03-08T09:00:57.807Z,63.62
2024-03-08T09:02:04.771Z,55.81
2024-03-08T09:03:11.759Z,54.51
2024-03-08T09:04:18.695Z,58.97
2024-03-08T09:05:25.587Z,52.33
2024-03-08T09:06:32.436Z,53.55
2024-03-08T09:07:39.386Z,60.02
2024-03-08T09:08:46.335Z,63.18
2024-03-08T09:09:53.258Z,52.21
2024-03-08T09:11:00.210Z,53.41
2024-03-08T09:12:07.200Z,56.16
2024-03-08T09:13:18.647Z,57.74
2024-03-08T09:14:25.842Z,59.23
2024-03-08T09:15:32.787Z,60.98
2024-03-08T09:16:39.690Z,58.40
2024-03-08T09:17:46.582Z,52.66
2024-03-08T09:18:53.425Z,55.63
2024-03-08T09:20:00.341Z,53.63
2024-03-08T09:21:07.199Z,53.17
2024-03-08T09:22:14.027Z,57.45
2024-03-08T09:23:20.913Z,58.64
2024-03-08T09:24:27.701Z,58.98
2024-03-08T09:25:34.586Z,61.93
2024-03-08T09:26:41.396Z,58.72
2024-03-08T09:27:48.305Z,69.02
2024-03-08T09:28:55.178Z,63.25
2024-03-08T09:30:02.006Z,62.50
2024-03-08T09:31:08.920Z,65.43
2024-03-08T09:32:15.812Z,61.14
2024-03-08T09:33:22.648Z,63.41
2024-03-08T09:34:37.053Z,65.97
2024-03-08T09:35:41.185Z,69.94
2024-03-08T09:36:48.300Z,76.70
2024-03-08T09:37:55.190Z,79.27
2024-03-08T09:39:02.027Z,75.73
2024-03-08T09:40:08.826Z,69.93
2024-03-08T09:41:15.705Z,68.73
2024-03-08T09:42:22.520Z,69.17
2024-03-08T09:43:29.408Z,75.70
2024-03-08T09:44:36.254Z,86.80
2024-03-08T09:45:43.152Z,89.44
2024-03-08T09:46:50.058Z,104.43
2024-03-08T09:47:56.960Z,115.45
2024-03-08T09:49:03.885Z,122.79
2024-03-08T09:50:10.718Z,121.10
2024-03-08T09:51:17.577Z,126.76
2024-03-08T09:52:24.475Z,133.69
2024-03-08T09:53:31.373Z,130.33
2024-03-08T09:54:38.226Z,130.75
2024-03-08T09:55:45.081Z,118.34
2024-03-08T09:56:51.970Z,97.01
2024-03-08T09:57:58.788Z,88.66
2024-03-08T09:59:05.731Z,82.05
2024-03-08T10:00:12.566Z,73.95
2024-03-08T10:01:19.493Z,69.27
2024-03-08T10:02:26.492Z,64.90
2024-03-08T10:03:33.399Z,62.88
2024-03-08T10:04:40.301Z,58.63
2024-03-08T10:05:47.136Z,64.33
2024-03-08T10:06:54.019Z,61.21
2024-03-08T10:08:00.889Z,61.31
2024-03-08T10:09:07.772Z,60.73
2024-03-08T10:10:14.707Z,62.59
2024-03-08T10:11:21.652Z,65.48
2024-03-08T10:12:28.560Z,65.20
2024-03-08T10:13:35.449Z,70.72
2024-03-08T10:14:42.279Z,70.11
2024-03-08T10:15:49.205Z,69.02
2024-03-08T10:16:56.233Z,71.15
2024-03-08T10:18:03.218Z,76.65
2024-03-08T10:19:10.014Z,80.87
2024-03-08T10:20:16.916Z,80.35
2024-03-08T10:21:23.846Z,81.08
2024-03-08T10:22:30.752Z,87.65
2024-03-08T10:23:37.686Z,96.25
2024-03-08T10:24:44.576Z,85.23
2024-03-08T10:25:51.513Z,92.97
2024-03-08T10:26:58.423Z,71.94
2024-03-08T10:28:05.244Z,56.58
2024-03-08T10:29:12.144Z,51.50
2024-03-08T10:30:18.967Z,55.57
2024-03-08T10:31:25.872Z,63.59
2024-03-08T10:32:32.782Z,41.79
2024-03-08T10:33:39.619Z,30.83
2024-03-08T10:34:46.544Z,36.23
2024-03-08T10:35:53.390Z,32.45
2024-03-08T10:37:00.260Z,32.60
2024-03-08T10:38:07.172Z,27.68
2024-03-08T10:39:14.109Z,30.11
2024-03-08T10:40:21.200Z,19.32
2024-03-08T10:41:28.125Z,17.87
2024-03-08T10:42:38.180Z,17.82
2024-03-08T10:43:46.022Z,25.02
2024-03-08T10:44:52.930Z,26.72
2024-03-08T10:45:59.808Z,27.62
2024-03-08T10:47:07.029Z,29.07
2024-03-08T10:48:14.050Z,28.00
2024-03-08T10:49:20.908Z,30.81
2024-03-08T10:50:27.764Z,28.99
2024-03-08T10:51:34.612Z,32.40
2024-03-08T10:52:41.620Z,38.84
2024-03-08T10:53:48.503Z,47.98
2024-03-08T10:54:55.413Z,52.36
2024-03-08T10:56:02.326Z,52.10
2024-03-08T10:57:09.165Z,54.64
2024-03-08T10:58:16.051Z,46.83
2024-03-08T10:59:22.896Z,49.92
2024-03-08T11:00:29.787Z,49.46
2024-03-08T11:01:36.772Z,41.65
2024-03-08T11:02:43.655Z,40.80
2024-03-08T11:03:50.633Z,39.71
2024-03-08T11:04:57.515Z,34.59
2024-03-08T11:06:04.592Z,56.82
2024-03-08T11:07:11.411Z,41.40
2024-03-08T11:08:18.304Z,41.57
2024-03-08T11:09:25.198Z,54.26
2024-03-08T11:10:32.142Z,63.00
2024-03-08T11:11:39.122Z,61.59
2024-03-08T11:12:45.969Z,60.34
2024-03-08T11:13:52.878Z,41.58
2024-03-08T11:14:59.709Z,38.40
2024-03-08T11:16:06.586Z,31.30
2024-03-08T11:17:14.850Z,43.06
2024-03-08T11:18:22.902Z,52.66
2024-03-08T11:19:29.835Z,62.61
2024-03-08T11:20:36.784Z,73.23
2024-03-08T11:21:43.688Z,65.88
2024-03-08T11:22:50.663Z,65.30
2024-03-08T11:23:57.482Z,55.00
2024-03-08T11:25:04.376Z,44.00
2024-03-08T11:26:11.248Z,42.11
2024-03-08T11:27:18.107Z,35.77
2024-03-08T11:28:25.006Z,26.85
2024-03-08T11:29:31.893Z,24.44
2024-03-08T11:30:38.745Z,20.18
2024-03-08T11:31:45.675Z,18.98
2024-03-08T11:32:52.613Z,17.29
2024-03-08T11:33:59.492Z,17.04
2024-03-08T11:35:06.410Z,14.96
2024-03-08T11:36:13.262Z,13.00
2024-03-08T11:37:20.196Z,13.20
2024-03-08T11:38:27.129Z,13.41
2024-03-08T11:39:33.994Z,14.21
2024-03-08T11:40:40.868Z,12.58
2024-03-08T11:41:47.811Z,13.63
2024-03-08T11:42:54.644Z,13.55
2024-03-08T11:44:01.541Z,12.54
2024-03-08T11:45:08.391Z,14.12
2024-03-08T11:46:15.329Z,15.46
2024-03-08T11:47:22.318Z,13.14
2024-03-08T11:48:29.132Z,14.51
2024-03-08T11:49:36.109Z,13.71
2024-03-08T11:50:42.959Z,16.77
2024-03-08T11:51:49.826Z,16.54
2024-03-08T11:52:56.808Z,18.56
2024-03-08T11:54:03.747Z,20.37
2024-03-08T11:55:10.619Z,18.42
2024-03-08T11:56:17.569Z,18.84
2024-03-08T11:57:24.372Z,26.21
2024-03-08T11:58:31.254Z,30.14
2024-03-08T11:59:38.110Z,30.80
2024-03-08T12:00:44.999Z,17.57
2024-03-08T12:01:51.933Z,20.52
2024-03-08T12:02:58.854Z,26.19
2024-03-08T12:04:05.699Z,69.01
2024-03-08T12:05:12.566Z,153.27
2024-03-08T12:06:19.415Z,205.60
2024-03-08T12:07:26.370Z,255.15
2024-03-08T12:08:33.180Z,222.46
2024-03-08T12:09:40.060Z,186.46
2024-03-08T12:10:46.980Z,173.66
2024-03-08T12:11:53.905Z,161.72
2024-03-08T12:13:00.895Z,150.40
2024-03-08T12:14:07.854Z,181.98
2024-03-08T12:15:14.767Z,119.49
2024-03-08T12:16:21.673Z,72.64
2024-03-08T12:17:28.492Z,63.55
2024-03-08T12:18:35.388Z,50.35
2024-03-08T12:19:42.268Z,45.94
2024-03-08T12:20:49.131Z,42.54
2024-03-08T12:21:55.971Z,41.24
2024-03-08T12:23:02.877Z,37.20
2024-03-08T12:24:10.113Z,37.24
2024-03-08T12:25:17.309Z,50.44
2024-03-08T12:26:24.199Z,54.01
2024-03-08T12:27:31.059Z,42.90
2024-03-08T12:28:37.896Z,34.94
2024-03-08T12:29:44.812Z,35.68
2024-03-08T12:30:51.664Z,34.01
2024-03-08T12:31:58.600Z,32.62
2024-03-08T12:33:05.704Z,32.49
2024-03-08T12:34:12.654Z,33.71
2024-03-08T12:35:19.618Z,34.20
2024-03-08T12:36:26.570Z,30.78
2024-03-08T12:37:33.463Z,30.14
2024-03-08T12:38:40.450Z,29.71
2024-03-08T12:39:47.584Z,28.35
2024-03-08T12:40:54.599Z,33.92
2024-03-08T12:42:01.661Z,29.71
2024-03-08T12:43:08.571Z,28.09
2024-03-08T12:44:15.447Z,27.98
2024-03-08T12:45:22.318Z,27.44
2024-03-08T12:46:29.252Z,28.41
2024-03-08T12:47:36.120Z,28.61
2024-03-08T12:48:42.938Z,36.11
2024-03-08T12:49:49.872Z,29.00
2024-03-08T12:50:56.696Z,28.31
2024-03-08T12:52:03.640Z,24.94
2024-03-08T12:53:10.643Z,27.08
2024-03-08T12:54:17.611Z,27.58
2024-03-08T12:55:24.572Z,27.70
2024-03-08T12:56:31.530Z,28.27
2024-03-08T12:57:38.418Z,28.28
2024-03-08T12:58:45.386Z,39.46
2024-03-08T12:59:52.215Z,26.98
2024-03-08T13:00:59.088Z,30.38
2024-03-08T13:02:05.986Z,30.05
2024-03-08T13:03:12.988Z,39.95
2024-03-08T13:04:19.866Z,33.95
2024-03-08T13:05:26.706Z,42.99
2024-03-08T13:06:33.614Z,51.56
2024-03-08T13:07:40.468Z,74.65
2024-03-08T13:08:47.369Z,107.08
2024-03-08T13:09:54.218Z,106.45
2024-03-08T13:11:01.235Z,83.25
2024-03-08T13:12:08.164Z,65.87
2024-03-08T13:13:15.111Z,64.64
2024-03-08T13:14:21.960Z,66.31
2024-03-08T13:15:28.807Z,64.12
2024-03-08T13:16:35.731Z,79.34
2024-03-08T13:17:42.620Z,112.92
2024-03-08T13:18:53.136Z,202.70
2024-03-08T13:20:01.371Z,301.85
2024-03-08T13:21:08.316Z,347.27
2024-03-08T13:22:15.295Z,330.77
2024-03-08T13:23:22.195Z,290.50
2024-03-08T13:24:29.074Z,223.70
2024-03-08T13:25:36.051Z,163.87
2024-03-08T13:26:43.159Z,142.15
2024-03-08T13:27:50.053Z,126.99
2024-03-08T13:28:56.973Z,112.52
2024-03-08T13:30:03.856Z,103.74
2024-03-08T13:31:10.718Z,89.88
2024-03-08T13:32:17.578Z,85.32
2024-03-08T13:33:24.440Z,75.39
2024-03-08T13:34:31.356Z,67.39
2024-03-08T13:35:38.212Z,65.97
2024-03-08T13:36:45.700Z,69.00
2024-03-08T13:37:52.908Z,64.78
2024-03-08T13:38:59.799Z,62.26
2024-03-08T13:40:06.670Z,65.65
2024-03-08T13:41:13.647Z,62.35
2024-03-08T13:42:20.606Z,65.08
2024-03-08T13:43:27.556Z,59.40
2024-03-08T13:44:34.447Z,58.09
2024-03-08T13:45:41.319Z,51.84
2024-03-08T13:46:49.674Z,54.58
2024-03-08T13:47:58.860Z,50.67
2024-03-08T13:49:05.712Z,44.03
2024-03-08T13:50:12.538Z,46.25
2024-03-08T13:51:19.452Z,48.62
2024-03-08T13:52:26.521Z,53.24
2024-03-08T13:53:33.536Z,57.99
2024-03-08T13:54:40.403Z,74.40
2024-03-08T13:55:47.322Z,85.91
2024-03-08T13:56:54.237Z,111.54
2024-03-08T13:58:01.124Z,119.53
2024-03-08T13:59:08.052Z,132.17
2024-03-08T14:00:14.888Z,124.98
2024-03-08T14:01:21.834Z,110.29
2024-03-08T14:02:28.679Z,110.81
2024-03-08T14:03:35.544Z,102.49
2024-03-08T14:04:42.419Z,95.00
2024-03-08T14:05:49.318Z,100.77
2024-03-08T14:06:57.318Z,102.68
2024-03-08T14:08:05.055Z,114.12
2024-03-08T14:09:11.976Z,128.66
2024-03-08T14:10:18.980Z,134.95
2024-03-08T14:11:25.964Z,157.97
2024-03-08T14:12:32.925Z,154.32
2024-03-08T14:13:39.802Z,166.68
2024-03-08T14:14:46.599Z,162.53
2024-03-08T14:15:53.543Z,169.01
2024-03-08T14:17:00.476Z,167.62
2024-03-08T14:18:07.514Z,170.30
2024-03-08T14:19:14.373Z,162.05
2024-03-08T14:20:21.252Z,169.86
2024-03-08T14:21:28.178Z,166.80